INFORMACIÓN METAR y TAF
METAR FOR LEMO
ADDS - METARS form results

(0858 UTC 13 August 2022)
Data provider http://aviationweather.gov/metar/data/
 
METAR text: LEMO 130830Z 36006KT 310V080 9999 FEW030CB SCT050 26/20 Q1014 RESHRA NOSIG
Conditions at: LEMO (MORON (SP-USAFB), ES) observed 0830 UTC 13 August 2022
Temperature: 26.0°C (79°F)
Dewpoint: 20.0°C (68°F) [RH = 70%]
Pressure (altimeter): 29.94 inches Hg (1014.0 mb)
Winds: from the N (360 degrees) at 7 MPH (6 knots; 3.1 m/s)
Visibility: 6 or more miles (10+ km)
Ceiling: at least 12,000 feet AGL
Clouds: few clouds at 3000 feet AGL
scattered clouds at 5000 feet AGL
Weather: no significant weather observed at this time

METAR text: LEMO 130813Z 36004KT 300V080 9999 -SHRA FEW050CB 28/18 Q1014 NOSIG
Conditions at: LEMO (MORON (SP-USAFB), ES) observed 0813 UTC 13 August 2022
Temperature: 28.0°C (82°F)
Dewpoint: 18.0°C (64°F) [RH = 55%]
Pressure (altimeter): 29.94 inches Hg (1014.0 mb)
Winds: from the N (360 degrees) at 5 MPH (4 knots; 2.1 m/s)
Visibility: 6 or more miles (10+ km)
Ceiling: at least 12,000 feet AGL
Clouds: few clouds at 5000 feet AGL
Weather: -SHRA  (light rain showers)

METAR text: LEMO 130800Z 11004KT 060V160 9999 FEW055 27/17 Q1013 NOSIG
Conditions at: LEMO (MORON (SP-USAFB), ES) observed 0800 UTC 13 August 2022
Temperature: 27.0°C (81°F)
Dewpoint: 17.0°C (63°F) [RH = 54%]
Pressure (altimeter): 29.91 inches Hg (1013.0 mb)
Winds: from the ESE (110 degrees) at 5 MPH (4 knots; 2.1 m/s)
Visibility: 6 or more miles (10+ km)
Ceiling: at least 12,000 feet AGL
Clouds: few clouds at 5500 feet AGL
Weather: no significant weather observed at this time

Forecast for: LEMO (MORON (SP-USAFB), ES)
Text: TAF LEMO 130800Z 1309/1409 03008KT 9999 SCT045 TX37/1316Z TN21/1405Z
Forecast period: 0900 UTC 13 August 2022 to 0900 UTC 14 August 2022
Forecast type: FROM: standard forecast or significant change
Winds: from the NNE (30 degrees) at 9 MPH (8 knots; 4.1 m/s)
Visibility: 6 or more miles (10+ km)
Ceiling: at least 12,000 feet AGL
Clouds: scattered clouds at 4500 feet AGL
Weather: no significant weather forecast for this period
Text: TEMPO 1309/1320 29010KT
Forecast period: 0900 to 2000 UTC 13 August 2022
Forecast type: TEMPORARY: The following changes expected for less than half the time period
Winds: from the WNW (290 degrees) at 12 MPH (10 knots; 5.1 m/s)
Visibility: missing
Ceiling: unknown
Clouds: missing
Weather: no significant weather forecast for this period
Text: PROB40
Forecast period: 0900 to 1300 UTC 13 August 2022
Forecast type: TEMPORARY: The following changes expected for less than half the time period
Winds: variable direction winds at 17 MPH (15 knots; 7.7 m/s)
gusting to 29 MPH (25 knots; 12.9 m/s)
Visibility: 1.86 miles (2.99 km)
Ceiling: at least 12,000 feet AGL
Clouds: scattered clouds at 4000 feet AGL
scattered clouds at 5000 feet AGL
Weather: TSRA  (rain associated with thunderstorm(s))
Text: TEMPO 1309/1313 VRB15G25KT 3000 TSRA SCT040 SCT050CB
Forecast period: 2100 UTC 13 August 2022 to 0900 UTC 14 August 2022
Forecast type: TEMPORARY: The following changes expected for less than half the time period
Winds: from the SSW (210 degrees) at 12 MPH (10 knots; 5.1 m/s)
Visibility: missing
Ceiling: unknown
Clouds: missing
Weather: no significant weather forecast for this period

 MAPA DE AEROPUERTO

 INFORMACIÓN DE PISTA
Pista 02 Longitud 11801 ft Ancho 200 ft
Elevación 285 ft Umbral desplazado 0 ft Rumbo de pista 20
Pista 20 Longitud 11801 ft Ancho 200 ft
Elevación 270 ft Umbral desplazado 0 ft Rumbo de pista 200

 FRECUANCIAS DEL AEROPUERTO
Tipo APP Nombre SEVILLA AP Frecuencia 120 MHZ
Tipo GND Nombre GND Frecuencia 25.89 MHZ
Tipo PMSV Nombre PMSV METRO Frecuencia 28.442 MHZ
Tipo POST Nombre 496 ABS CO Frecuencia 26.472 MHZ
Tipo PTD Nombre PTD Frecuencia 27.537 MHZ
Tipo TWR Nombre TWR Frecuencia 122.1 MHZ

 RADIO AYUDAS DEL AEROPUERTO
Tipo NDB Nombre Moron Frecuencia 428 KHZ
Tipo TACAN Nombre Moron Frecuencia 115300 KHZ
Tipo VOR-DME Nombre Moron Frecuencia 115500 KHZ




Powered by Virtual Airlines Manager